sensor_id;sensor_type;location;lat;lon;timestamp;P1;durP1;ratioP1;P2;durP2;ratioP2
4001;SDS011;2015;48.670;9.060;2023-01-04T00:00:29;20.23;;;16.60;;
4001;SDS011;2015;48.670;9.060;2023-01-04T00:03:00;18.47;;;13.30;;
4001;SDS011;2015;48.670;9.060;2023-01-04T00:05:33;25.57;;;14.40;;
4001;SDS011;2015;48.670;9.060;2023-01-04T00:08:04;19.73;;;14.37;;
4001;SDS011;2015;48.670;9.060;2023-01-04T00:10:36;20.37;;;13.37;;
4001;SDS011;2015;48.670;9.060;2023-01-04T00:13:08;19.90;;;14.57;;
4001;SDS011;2015;48.670;9.060;2023-01-04T00:15:40;21.83;;;14.53;;
4001;SDS011;2015;48.670;9.060;2023-01-04T00:18:11;16.87;;;12.30;;
4001;SDS011;2015;48.670;9.060;2023-01-04T00:20:44;22.00;;;13.63;;
4001;SDS011;2015;48.670;9.060;2023-01-04T00:23:16;22.40;;;14.17;;
4001;SDS011;2015;48.670;9.060;2023-01-04T00:25:47;21.23;;;13.70;;
4001;SDS011;2015;48.670;9.060;2023-01-04T00:28:19;19.00;;;12.90;;
4001;SDS011;2015;48.670;9.060;2023-01-04T00:30:51;20.27;;;14.43;;
4001;SDS011;2015;48.670;9.060;2023-01-04T00:33:23;20.30;;;14.47;;
4001;SDS011;2015;48.670;9.060;2023-01-04T00:35:54;21.80;;;14.90;;
4001;SDS011;2015;48.670;9.060;2023-01-04T00:38:26;23.00;;;15.20;;
4001;SDS011;2015;48.670;9.060;2023-01-04T00:40:58;20.73;;;12.90;;
4001;SDS011;2015;48.670;9.060;2023-01-04T00:43:30;26.07;;;14.43;;
4001;SDS011;2015;48.670;9.060;2023-01-04T00:46:03;15.57;;;13.37;;
4001;SDS011;2015;48.670;9.060;2023-01-04T00:48:37;22.57;;;14.60;;
4001;SDS011;2015;48.670;9.060;2023-01-04T00:51:10;24.70;;;14.80;;
4001;SDS011;2015;48.670;9.060;2023-01-04T00:53:42;21.73;;;14.57;;
4001;SDS011;2015;48.670;9.060;2023-01-04T00:56:14;18.73;;;13.67;;
4001;SDS011;2015;48.670;9.060;2023-01-04T00:58:46;21.38;;;14.65;;
4001;SDS011;2015;48.670;9.060;2023-01-04T01:01:17;18.13;;;12.97;;
4001;SDS011;2015;48.670;9.060;2023-01-04T01:03:53;17.40;;;12.70;;
4001;SDS011;2015;48.670;9.060;2023-01-04T01:06:26;17.67;;;12.23;;
4001;SDS011;2015;48.670;9.060;2023-01-04T01:08:59;16.07;;;12.63;;
4001;SDS011;2015;48.670;9.060;2023-01-04T01:11:31;18.70;;;12.17;;
4001;SDS011;2015;48.670;9.060;2023-01-04T01:14:04;21.53;;;12.33;;
4001;SDS011;2015;48.670;9.060;2023-01-04T01:16:37;17.63;;;13.30;;
4001;SDS011;2015;48.670;9.060;2023-01-04T01:19:28;19.73;;;11.97;;
4001;SDS011;2015;48.670;9.060;2023-01-04T01:22:00;20.38;;;11.88;;
4001;SDS011;2015;48.670;9.060;2023-01-04T01:24:31;17.17;;;11.43;;
4001;SDS011;2015;48.670;9.060;2023-01-04T01:27:03;15.03;;;11.23;;
4001;SDS011;2015;48.670;9.060;2023-01-04T01:29:35;15.27;;;12.03;;
4001;SDS011;2015;48.670;9.060;2023-01-04T01:32:07;16.33;;;12.03;;
4001;SDS011;2015;48.670;9.060;2023-01-04T01:34:39;17.33;;;12.43;;
4001;SDS011;2015;48.670;9.060;2023-01-04T01:37:10;17.83;;;13.43;;
4001;SDS011;2015;48.670;9.060;2023-01-04T01:39:42;19.80;;;12.53;;
4001;SDS011;2015;48.670;9.060;2023-01-04T01:42:17;20.03;;;12.20;;
4001;SDS011;2015;48.670;9.060;2023-01-04T01:44:53;17.73;;;12.80;;
4001;SDS011;2015;48.670;9.060;2023-01-04T01:47:33;18.03;;;12.40;;
4001;SDS011;2015;48.670;9.060;2023-01-04T01:50:17;13.43;;;11.30;;
4001;SDS011;2015;48.670;9.060;2023-01-04T01:52:55;18.87;;;12.57;;
4001;SDS011;2015;48.670;9.060;2023-01-04T01:55:30;16.77;;;11.83;;
4001;SDS011;2015;48.670;9.060;2023-01-04T01:58:05;15.90;;;12.13;;
4001;SDS011;2015;48.670;9.060;2023-01-04T02:00:38;16.17;;;10.70;;
4001;SDS011;2015;48.670;9.060;2023-01-04T02:03:15;19.90;;;13.30;;
4001;SDS011;2015;48.670;9.060;2023-01-04T02:05:52;14.93;;;12.30;;
4001;SDS011;2015;48.670;9.060;2023-01-04T02:08:25;14.37;;;11.43;;
4001;SDS011;2015;48.670;9.060;2023-01-04T02:10:58;21.13;;;13.20;;
4001;SDS011;2015;48.670;9.060;2023-01-04T02:13:30;16.20;;;10.20;;
4001;SDS011;2015;48.670;9.060;2023-01-04T02:16:29;16.50;;;11.60;;
4001;SDS011;2015;48.670;9.060;2023-01-04T02:21:42;16.87;;;12.07;;
4001;SDS011;2015;48.670;9.060;2023-01-04T02:33:04;17.23;;;12.20;;
4001;SDS011;2015;48.670;9.060;2023-01-04T02:38:32;13.10;;;10.53;;
4001;SDS011;2015;48.670;9.060;2023-01-04T02:41:25;10.57;;;9.03;;
4001;SDS011;2015;48.670;9.060;2023-01-04T02:44:14;20.07;;;10.20;;
4001;SDS011;2015;48.670;9.060;2023-01-04T02:47:30;15.03;;;12.07;;
4001;SDS011;2015;48.670;9.060;2023-01-04T02:50:30;14.80;;;9.23;;
4001;SDS011;2015;48.670;9.060;2023-01-04T02:53:21;12.23;;;9.60;;
4001;SDS011;2015;48.670;9.060;2023-01-04T03:02:29;15.00;;;9.90;;
4001;SDS011;2015;48.670;9.060;2023-01-04T03:05:24;12.70;;;9.00;;
4001;SDS011;2015;48.670;9.060;2023-01-04T03:08:37;14.63;;;10.20;;
4001;SDS011;2015;48.670;9.060;2023-01-04T03:11:14;13.90;;;10.20;;
4001;SDS011;2015;48.670;9.060;2023-01-04T03:14:17;10.90;;;9.40;;
4001;SDS011;2015;48.670;9.060;2023-01-04T03:17:06;11.10;;;9.30;;
4001;SDS011;2015;48.670;9.060;2023-01-04T03:19:41;13.50;;;9.30;;
4001;SDS011;2015;48.670;9.060;2023-01-04T03:22:36;12.73;;;9.17;;
4001;SDS011;2015;48.670;9.060;2023-01-04T03:25:30;14.37;;;9.93;;
4001;SDS011;2015;48.670;9.060;2023-01-04T03:28:26;14.80;;;9.37;;
4001;SDS011;2015;48.670;9.060;2023-01-04T03:31:28;12.90;;;9.53;;
4001;SDS011;2015;48.670;9.060;2023-01-04T03:34:27;11.80;;;9.87;;
4001;SDS011;2015;48.670;9.060;2023-01-04T03:37:37;13.87;;;9.60;;
4001;SDS011;2015;48.670;9.060;2023-01-04T03:41:06;15.73;;;10.32;;
4001;SDS011;2015;48.670;9.060;2023-01-04T03:44:16;14.20;;;10.43;;
4001;SDS011;2015;48.670;9.060;2023-01-04T03:47:25;11.80;;;10.07;;
4001;SDS011;2015;48.670;9.060;2023-01-04T03:50:23;12.07;;;10.20;;
4001;SDS011;2015;48.670;9.060;2023-01-04T03:52:59;11.77;;;9.60;;
4001;SDS011;2015;48.670;9.060;2023-01-04T03:55:31;11.77;;;9.33;;
4001;SDS011;2015;48.670;9.060;2023-01-04T03:58:07;12.00;;;8.80;;
4001;SDS011;2015;48.670;9.060;2023-01-04T04:00:39;10.53;;;9.10;;
4001;SDS011;2015;48.670;9.060;2023-01-04T04:03:11;7.03;;;6.50;;
4001;SDS011;2015;48.670;9.060;2023-01-04T04:05:43;8.67;;;7.30;;
4001;SDS011;2015;48.670;9.060;2023-01-04T04:08:34;8.03;;;7.23;;
4001;SDS011;2015;48.670;9.060;2023-01-04T04:11:06;7.77;;;7.03;;
4001;SDS011;2015;48.670;9.060;2023-01-04T04:13:57;8.67;;;7.07;;
4001;SDS011;2015;48.670;9.060;2023-01-04T04:16:30;10.70;;;8.30;;
4001;SDS011;2015;48.670;9.060;2023-01-04T04:19:02;6.93;;;6.33;;
4001;SDS011;2015;48.670;9.060;2023-01-04T04:21:39;7.83;;;6.90;;
4001;SDS011;2015;48.670;9.060;2023-01-04T04:24:21;7.63;;;6.93;;
4001;SDS011;2015;48.670;9.060;2023-01-04T04:26:54;7.20;;;6.60;;
4001;SDS011;2015;48.670;9.060;2023-01-04T04:29:26;6.53;;;5.93;;
4001;SDS011;2015;48.670;9.060;2023-01-04T04:31:58;9.87;;;6.07;;
4001;SDS011;2015;48.670;9.060;2023-01-04T04:34:30;6.83;;;6.13;;
4001;SDS011;2015;48.670;9.060;2023-01-04T04:37:02;8.33;;;6.13;;
4001;SDS011;2015;48.670;9.060;2023-01-04T04:39:34;6.87;;;6.10;;
4001;SDS011;2015;48.670;9.060;2023-01-04T04:42:05;5.87;;;5.13;;
4001;SDS011;2015;48.670;9.060;2023-01-04T04:44:38;5.20;;;4.80;;
4001;SDS011;2015;48.670;9.060;2023-01-04T04:47:10;5.53;;;5.07;;
4001;SDS011;2015;48.670;9.060;2023-01-04T04:49:41;6.83;;;6.13;;
4001;SDS011;2015;48.670;9.060;2023-01-04T04:52:13;6.97;;;5.73;;
4001;SDS011;2015;48.670;9.060;2023-01-04T04:54:45;6.07;;;5.53;;
4001;SDS011;2015;48.670;9.060;2023-01-04T04:57:17;6.50;;;5.90;;
4001;SDS011;2015;48.670;9.060;2023-01-04T04:59:48;4.90;;;4.50;;
4001;SDS011;2015;48.670;9.060;2023-01-04T05:02:20;5.70;;;5.20;;
4001;SDS011;2015;48.670;9.060;2023-01-04T05:04:52;6.00;;;5.60;;
4001;SDS011;2015;48.670;9.060;2023-01-04T05:07:24;7.60;;;5.60;;
4001;SDS011;2015;48.670;9.060;2023-01-04T05:09:56;6.40;;;5.73;;
4001;SDS011;2015;48.670;9.060;2023-01-04T05:12:28;6.53;;;6.03;;
4001;SDS011;2015;48.670;9.060;2023-01-04T05:15:28;5.80;;;5.30;;
4001;SDS011;2015;48.670;9.060;2023-01-04T05:18:05;5.57;;;5.10;;
4001;SDS011;2015;48.670;9.060;2023-01-04T05:20:38;4.97;;;4.57;;
4001;SDS011;2015;48.670;9.060;2023-01-04T05:23:11;6.47;;;5.70;;
4001;SDS011;2015;48.670;9.060;2023-01-04T05:25:44;5.03;;;4.63;;
4001;SDS011;2015;48.670;9.060;2023-01-04T05:28:17;5.68;;;5.18;;
4001;SDS011;2015;48.670;9.060;2023-01-04T05:30:49;7.30;;;6.37;;
4001;SDS011;2015;48.670;9.060;2023-01-04T05:33:28;6.23;;;4.93;;
4001;SDS011;2015;48.670;9.060;2023-01-04T05:36:01;4.00;;;3.70;;
4001;SDS011;2015;48.670;9.060;2023-01-04T05:38:34;5.77;;;5.30;;
4001;SDS011;2015;48.670;9.060;2023-01-04T05:41:06;4.70;;;4.30;;
4001;SDS011;2015;48.670;9.060;2023-01-04T05:43:58;3.77;;;3.47;;
4001;SDS011;2015;48.670;9.060;2023-01-04T05:46:29;7.00;;;5.57;;
4001;SDS011;2015;48.670;9.060;2023-01-04T05:49:01;4.67;;;4.27;;
4001;SDS011;2015;48.670;9.060;2023-01-04T05:51:33;4.60;;;4.30;;
4001;SDS011;2015;48.670;9.060;2023-01-04T05:54:05;5.00;;;4.60;;
4001;SDS011;2015;48.670;9.060;2023-01-04T05:56:36;5.63;;;5.13;;
4001;SDS011;2015;48.670;9.060;2023-01-04T05:59:08;5.20;;;4.70;;
4001;SDS011;2015;48.670;9.060;2023-01-04T06:01:40;6.57;;;5.63;;
4001;SDS011;2015;48.670;9.060;2023-01-04T06:04:12;5.43;;;4.93;;
4001;SDS011;2015;48.670;9.060;2023-01-04T06:06:44;4.80;;;4.40;;
4001;SDS011;2015;48.670;9.060;2023-01-04T06:09:16;5.00;;;4.57;;
4001;SDS011;2015;48.670;9.060;2023-01-04T06:11:47;7.07;;;6.00;;
4001;SDS011;2015;48.670;9.060;2023-01-04T06:14:19;5.90;;;5.30;;
4001;SDS011;2015;48.670;9.060;2023-01-04T06:16:51;9.70;;;8.03;;
4001;SDS011;2015;48.670;9.060;2023-01-04T06:19:23;6.27;;;5.67;;
4001;SDS011;2015;48.670;9.060;2023-01-04T06:21:55;5.30;;;4.60;;
4001;SDS011;2015;48.670;9.060;2023-01-04T06:24:27;6.60;;;5.27;;
4001;SDS011;2015;48.670;9.060;2023-01-04T06:26:59;6.03;;;5.60;;
4001;SDS011;2015;48.670;9.060;2023-01-04T06:29:31;5.77;;;5.33;;
4001;SDS011;2015;48.670;9.060;2023-01-04T06:32:03;7.10;;;6.30;;
4001;SDS011;2015;48.670;9.060;2023-01-04T06:34:35;5.70;;;5.20;;
4001;SDS011;2015;48.670;9.060;2023-01-04T06:37:07;6.13;;;5.13;;
4001;SDS011;2015;48.670;9.060;2023-01-04T06:39:39;6.10;;;5.50;;
4001;SDS011;2015;48.670;9.060;2023-01-04T06:42:11;5.33;;;4.93;;
4001;SDS011;2015;48.670;9.060;2023-01-04T06:45:02;5.60;;;5.10;;
4001;SDS011;2015;48.670;9.060;2023-01-04T06:47:34;5.00;;;4.50;;
4001;SDS011;2015;48.670;9.060;2023-01-04T06:50:06;4.07;;;3.77;;
4001;SDS011;2015;48.670;9.060;2023-01-04T06:52:39;3.90;;;3.70;;
4001;SDS011;2015;48.670;9.060;2023-01-04T06:55:11;4.13;;;3.80;;
4001;SDS011;2015;48.670;9.060;2023-01-04T06:57:43;3.47;;;3.27;;
4001;SDS011;2015;48.670;9.060;2023-01-04T07:00:15;4.17;;;3.97;;
4001;SDS011;2015;48.670;9.060;2023-01-04T07:02:47;3.97;;;3.67;;
4001;SDS011;2015;48.670;9.060;2023-01-04T07:05:38;4.73;;;4.33;;
4001;SDS011;2015;48.670;9.060;2023-01-04T07:08:11;4.33;;;4.03;;
4001;SDS011;2015;48.670;9.060;2023-01-04T07:10:43;3.93;;;3.73;;
4001;SDS011;2015;48.670;9.060;2023-01-04T07:13:15;6.03;;;3.57;;
4001;SDS011;2015;48.670;9.060;2023-01-04T07:15:47;4.50;;;4.10;;
4001;SDS011;2015;48.670;9.060;2023-01-04T07:18:19;3.80;;;3.60;;
4001;SDS011;2015;48.670;9.060;2023-01-04T07:20:51;5.00;;;4.50;;
4001;SDS011;2015;48.670;9.060;2023-01-04T07:23:23;3.80;;;3.50;;
4001;SDS011;2015;48.670;9.060;2023-01-04T07:25:54;3.87;;;3.57;;
4001;SDS011;2015;48.670;9.060;2023-01-04T07:28:30;5.43;;;4.30;;
4001;SDS011;2015;48.670;9.060;2023-01-04T07:31:21;3.80;;;3.23;;
4001;SDS011;2015;48.670;9.060;2023-01-04T07:33:53;5.00;;;4.53;;
4001;SDS011;2015;48.670;9.060;2023-01-04T07:36:25;3.70;;;3.40;;
4001;SDS011;2015;48.670;9.060;2023-01-04T07:39:00;4.30;;;4.00;;
4001;SDS011;2015;48.670;9.060;2023-01-04T07:41:32;3.50;;;3.20;;
4001;SDS011;2015;48.670;9.060;2023-01-04T07:44:04;3.57;;;3.30;;
4001;SDS011;2015;48.670;9.060;2023-01-04T07:46:37;3.80;;;3.50;;
4001;SDS011;2015;48.670;9.060;2023-01-04T07:49:10;3.90;;;3.60;;
4001;SDS011;2015;48.670;9.060;2023-01-04T07:51:48;3.30;;;3.00;;
4001;SDS011;2015;48.670;9.060;2023-01-04T07:54:21;3.20;;;2.90;;
4001;SDS011;2015;48.670;9.060;2023-01-04T07:56:54;2.80;;;2.60;;
4001;SDS011;2015;48.670;9.060;2023-01-04T07:59:26;3.00;;;2.80;;
4001;SDS011;2015;48.670;9.060;2023-01-04T08:01:58;3.40;;;3.20;;
4001;SDS011;2015;48.670;9.060;2023-01-04T08:04:30;2.97;;;2.70;;
4001;SDS011;2015;48.670;9.060;2023-01-04T08:07:05;2.90;;;2.70;;
4001;SDS011;2015;48.670;9.060;2023-01-04T08:09:37;3.23;;;3.07;;
4001;SDS011;2015;48.670;9.060;2023-01-04T08:12:09;3.27;;;2.80;;
4001;SDS011;2015;48.670;9.060;2023-01-04T08:14:41;2.50;;;2.30;;
4001;SDS011;2015;48.670;9.060;2023-01-04T08:17:12;2.80;;;2.60;;
4001;SDS011;2015;48.670;9.060;2023-01-04T08:19:44;3.70;;;2.80;;
4001;SDS011;2015;48.670;9.060;2023-01-04T08:22:17;2.77;;;2.57;;
4001;SDS011;2015;48.670;9.060;2023-01-04T08:24:48;6.87;;;2.97;;
4001;SDS011;2015;48.670;9.060;2023-01-04T08:27:20;2.80;;;2.60;;
4001;SDS011;2015;48.670;9.060;2023-01-04T08:29:52;3.07;;;2.87;;
4001;SDS011;2015;48.670;9.060;2023-01-04T08:32:24;3.40;;;3.10;;
4001;SDS011;2015;48.670;9.060;2023-01-04T08:34:55;2.20;;;1.90;;
4001;SDS011;2015;48.670;9.060;2023-01-04T08:37:27;2.60;;;2.40;;
4001;SDS011;2015;48.670;9.060;2023-01-04T08:40:01;2.40;;;2.30;;
4001;SDS011;2015;48.670;9.060;2023-01-04T08:42:33;2.63;;;2.43;;
4001;SDS011;2015;48.670;9.060;2023-01-04T08:45:05;4.90;;;2.70;;
4001;SDS011;2015;48.670;9.060;2023-01-04T08:47:38;2.93;;;2.73;;
4001;SDS011;2015;48.670;9.060;2023-01-04T08:50:09;3.20;;;3.00;;
4001;SDS011;2015;48.670;9.060;2023-01-04T08:52:41;3.37;;;2.87;;
4001;SDS011;2015;48.670;9.060;2023-01-04T08:55:13;2.93;;;2.73;;
4001;SDS011;2015;48.670;9.060;2023-01-04T08:57:53;4.03;;;2.93;;
4001;SDS011;2015;48.670;9.060;2023-01-04T09:00:25;2.63;;;2.43;;
4001;SDS011;2015;48.670;9.060;2023-01-04T09:02:57;4.17;;;3.77;;
4001;SDS011;2015;48.670;9.060;2023-01-04T09:05:30;3.10;;;2.90;;
4001;SDS011;2015;48.670;9.060;2023-01-04T09:08:03;3.30;;;2.90;;
4001;SDS011;2015;48.670;9.060;2023-01-04T09:10:37;3.30;;;3.10;;
4001;SDS011;2015;48.670;9.060;2023-01-04T09:13:09;4.70;;;3.03;;
4001;SDS011;2015;48.670;9.060;2023-01-04T09:15:41;3.17;;;2.97;;
4001;SDS011;2015;48.670;9.060;2023-01-04T09:18:13;3.00;;;2.80;;
4001;SDS011;2015;48.670;9.060;2023-01-04T09:21:13;3.23;;;2.77;;
4001;SDS011;2015;48.670;9.060;2023-01-04T09:23:46;5.27;;;3.10;;
4001;SDS011;2015;48.670;9.060;2023-01-04T09:26:19;2.87;;;2.57;;
4001;SDS011;2015;48.670;9.060;2023-01-04T09:28:54;2.50;;;2.30;;
4001;SDS011;2015;48.670;9.060;2023-01-04T09:31:27;2.57;;;2.23;;
4001;SDS011;2015;48.670;9.060;2023-01-04T09:33:59;3.93;;;2.53;;
4001;SDS011;2015;48.670;9.060;2023-01-04T09:36:45;2.10;;;2.00;;
4001;SDS011;2015;48.670;9.060;2023-01-04T09:39:18;4.90;;;2.73;;
4001;SDS011;2015;48.670;9.060;2023-01-04T09:41:54;2.50;;;2.30;;
4001;SDS011;2015;48.670;9.060;2023-01-04T09:50:05;2.63;;;2.43;;
4001;SDS011;2015;48.670;9.060;2023-01-04T09:52:54;2.03;;;1.90;;
4001;SDS011;2015;48.670;9.060;2023-01-04T09:55:40;2.13;;;2.03;;
4001;SDS011;2015;48.670;9.060;2023-01-04T09:58:18;2.53;;;2.07;;
4001;SDS011;2015;48.670;9.060;2023-01-04T10:01:04;2.27;;;2.17;;
4001;SDS011;2015;48.670;9.060;2023-01-04T10:03:37;2.10;;;2.00;;
4001;SDS011;2015;48.670;9.060;2023-01-04T10:06:11;2.63;;;2.00;;
4001;SDS011;2015;48.670;9.060;2023-01-04T10:08:45;2.47;;;2.10;;
4001;SDS011;2015;48.670;9.060;2023-01-04T10:11:30;1.73;;;1.63;;
4001;SDS011;2015;48.670;9.060;2023-01-04T10:23:27;1.80;;;1.70;;
4001;SDS011;2015;48.670;9.060;2023-01-04T10:26:28;2.20;;;2.10;;
4001;SDS011;2015;48.670;9.060;2023-01-04T10:34:47;3.60;;;2.10;;
4001;SDS011;2015;48.670;9.060;2023-01-04T10:37:20;2.70;;;2.60;;
4001;SDS011;2015;48.670;9.060;2023-01-04T10:39:55;1.90;;;1.70;;
4001;SDS011;2015;48.670;9.060;2023-01-04T10:42:37;1.70;;;1.60;;
4001;SDS011;2015;48.670;9.060;2023-01-04T10:51:01;2.30;;;2.10;;
4001;SDS011;2015;48.670;9.060;2023-01-04T10:53:54;1.50;;;1.40;;
4001;SDS011;2015;48.670;9.060;2023-01-04T10:56:37;2.20;;;2.10;;
4001;SDS011;2015;48.670;9.060;2023-01-04T11:00:23;2.17;;;1.97;;
4001;SDS011;2015;48.670;9.060;2023-01-04T11:02:48;1.77;;;1.67;;
4001;SDS011;2015;48.670;9.060;2023-01-04T11:05:24;2.83;;;1.80;;
4001;SDS011;2015;48.670;9.060;2023-01-04T11:08:04;3.60;;;2.07;;
4001;SDS011;2015;48.670;9.060;2023-01-04T11:11:24;2.50;;;2.20;;
4001;SDS011;2015;48.670;9.060;2023-01-04T11:13:40;1.90;;;1.80;;
4001;SDS011;2015;48.670;9.060;2023-01-04T11:16:12;2.58;;;1.90;;
4001;SDS011;2015;48.670;9.060;2023-01-04T11:18:44;2.57;;;2.13;;
4001;SDS011;2015;48.670;9.060;2023-01-04T11:21:20;4.80;;;1.90;;
4001;SDS011;2015;48.670;9.060;2023-01-04T11:23:58;2.30;;;2.10;;
4001;SDS011;2015;48.670;9.060;2023-01-04T11:26:51;2.10;;;1.90;;
4001;SDS011;2015;48.670;9.060;2023-01-04T11:29:33;2.40;;;2.20;;
4001;SDS011;2015;48.670;9.060;2023-01-04T11:32:26;2.13;;;2.03;;
4001;SDS011;2015;48.670;9.060;2023-01-04T11:35:10;2.20;;;2.10;;
4001;SDS011;2015;48.670;9.060;2023-01-04T11:37:42;1.90;;;1.80;;
4001;SDS011;2015;48.670;9.060;2023-01-04T11:45:51;2.60;;;2.43;;
4001;SDS011;2015;48.670;9.060;2023-01-04T11:48:37;2.13;;;2.03;;
4001;SDS011;2015;48.670;9.060;2023-01-04T11:51:19;3.23;;;1.90;;
4001;SDS011;2015;48.670;9.060;2023-01-04T11:57:06;3.97;;;2.30;;
4001;SDS011;2015;48.670;9.060;2023-01-04T12:00:05;2.10;;;2.00;;
4001;SDS011;2015;48.670;9.060;2023-01-04T12:02:39;2.20;;;2.10;;
4001;SDS011;2015;48.670;9.060;2023-01-04T12:05:31;2.30;;;2.10;;
4001;SDS011;2015;48.670;9.060;2023-01-04T12:08:02;1.93;;;1.73;;
4001;SDS011;2015;48.670;9.060;2023-01-04T12:10:35;2.60;;;2.20;;
4001;SDS011;2015;48.670;9.060;2023-01-04T12:13:07;2.97;;;2.63;;
4001;SDS011;2015;48.670;9.060;2023-01-04T12:18:38;3.07;;;2.87;;
4001;SDS011;2015;48.670;9.060;2023-01-04T12:21:19;4.33;;;3.10;;
4001;SDS011;2015;48.670;9.060;2023-01-04T12:23:53;2.63;;;2.43;;
4001;SDS011;2015;48.670;9.060;2023-01-04T12:26:25;2.40;;;2.20;;
4001;SDS011;2015;48.670;9.060;2023-01-04T12:34:42;2.10;;;1.97;;
4001;SDS011;2015;48.670;9.060;2023-01-04T12:46:40;2.30;;;2.10;;
4001;SDS011;2015;48.670;9.060;2023-01-04T12:54:59;2.60;;;2.40;;
4001;SDS011;2015;48.670;9.060;2023-01-04T12:57:34;2.20;;;2.00;;
4001;SDS011;2015;48.670;9.060;2023-01-04T13:00:10;5.10;;;4.70;;
4001;SDS011;2015;48.670;9.060;2023-01-04T13:02:47;3.00;;;2.57;;
4001;SDS011;2015;48.670;9.060;2023-01-04T13:05:57;4.67;;;3.10;;
4001;SDS011;2015;48.670;9.060;2023-01-04T13:08:40;2.00;;;1.90;;
4001;SDS011;2015;48.670;9.060;2023-01-04T13:11:49;3.07;;;2.77;;
4001;SDS011;2015;48.670;9.060;2023-01-04T13:14:42;9.00;;;8.13;;
4001;SDS011;2015;48.670;9.060;2023-01-04T13:17:22;5.43;;;4.93;;
4001;SDS011;2015;48.670;9.060;2023-01-04T13:19:57;3.00;;;2.80;;
4001;SDS011;2015;48.670;9.060;2023-01-04T13:22:29;4.00;;;2.00;;
4001;SDS011;2015;48.670;9.060;2023-01-04T13:25:02;3.63;;;3.33;;
4001;SDS011;2015;48.670;9.060;2023-01-04T13:28:00;2.13;;;1.60;;
4001;SDS011;2015;48.670;9.060;2023-01-04T13:30:36;1.93;;;1.73;;
4001;SDS011;2015;48.670;9.060;2023-01-04T13:33:18;1.60;;;1.50;;
4001;SDS011;2015;48.670;9.060;2023-01-04T13:36:15;1.10;;;1.00;;
4001;SDS011;2015;48.670;9.060;2023-01-04T13:38:47;2.30;;;2.07;;
4001;SDS011;2015;48.670;9.060;2023-01-04T13:41:20;1.67;;;1.57;;
4001;SDS011;2015;48.670;9.060;2023-01-04T13:44:10;3.33;;;1.60;;
4001;SDS011;2015;48.670;9.060;2023-01-04T13:46:50;2.47;;;2.27;;
4001;SDS011;2015;48.670;9.060;2023-01-04T13:49:25;2.80;;;2.60;;
4001;SDS011;2015;48.670;9.060;2023-01-04T13:52:12;2.60;;;2.40;;
4001;SDS011;2015;48.670;9.060;2023-01-04T13:55:21;4.40;;;3.77;;
4001;SDS011;2015;48.670;9.060;2023-01-04T13:57:57;5.50;;;4.10;;
4001;SDS011;2015;48.670;9.060;2023-01-04T14:00:32;3.20;;;3.00;;
4001;SDS011;2015;48.670;9.060;2023-01-04T14:05:54;2.17;;;2.07;;
4001;SDS011;2015;48.670;9.060;2023-01-04T14:08:45;1.90;;;1.80;;
4001;SDS011;2015;48.670;9.060;2023-01-04T14:15:02;1.90;;;1.80;;
4001;SDS011;2015;48.670;9.060;2023-01-04T14:17:52;2.33;;;2.17;;
4001;SDS011;2015;48.670;9.060;2023-01-04T14:22:57;2.30;;;2.10;;
4001;SDS011;2015;48.670;9.060;2023-01-04T14:33:30;1.80;;;1.70;;
4001;SDS011;2015;48.670;9.060;2023-01-04T14:38:39;1.90;;;1.80;;
4001;SDS011;2015;48.670;9.060;2023-01-04T14:44:25;1.80;;;1.70;;
4001;SDS011;2015;48.670;9.060;2023-01-04T14:47:01;5.47;;;4.00;;
4001;SDS011;2015;48.670;9.060;2023-01-04T14:49:36;1.73;;;1.63;;
4001;SDS011;2015;48.670;9.060;2023-01-04T14:52:09;1.63;;;1.53;;
4001;SDS011;2015;48.670;9.060;2023-01-04T14:54:47;2.60;;;1.40;;
4001;SDS011;2015;48.670;9.060;2023-01-04T14:57:20;2.50;;;1.80;;
4001;SDS011;2015;48.670;9.060;2023-01-04T14:59:52;1.97;;;1.60;;
4001;SDS011;2015;48.670;9.060;2023-01-04T15:02:24;1.40;;;1.30;;
4001;SDS011;2015;48.670;9.060;2023-01-04T15:04:57;4.30;;;2.40;;
4001;SDS011;2015;48.670;9.060;2023-01-04T15:07:35;4.13;;;1.70;;
4001;SDS011;2015;48.670;9.060;2023-01-04T15:10:23;1.87;;;1.70;;
4001;SDS011;2015;48.670;9.060;2023-01-04T15:12:56;1.70;;;1.60;;
4001;SDS011;2015;48.670;9.060;2023-01-04T15:15:30;1.40;;;1.30;;
4001;SDS011;2015;48.670;9.060;2023-01-04T15:18:05;1.73;;;1.63;;
4001;SDS011;2015;48.670;9.060;2023-01-04T15:20:38;1.73;;;1.63;;
4001;SDS011;2015;48.670;9.060;2023-01-04T15:23:10;2.00;;;1.90;;
4001;SDS011;2015;48.670;9.060;2023-01-04T15:25:42;2.80;;;2.60;;
4001;SDS011;2015;48.670;9.060;2023-01-04T15:28:14;1.70;;;1.60;;
4001;SDS011;2015;48.670;9.060;2023-01-04T15:30:46;3.97;;;2.50;;
4001;SDS011;2015;48.670;9.060;2023-01-04T15:33:18;2.13;;;2.03;;
4001;SDS011;2015;48.670;9.060;2023-01-04T15:35:57;1.77;;;1.67;;
4001;SDS011;2015;48.670;9.060;2023-01-04T15:38:30;3.67;;;3.27;;
4001;SDS011;2015;48.670;9.060;2023-01-04T15:41:03;3.30;;;3.10;;
4001;SDS011;2015;48.670;9.060;2023-01-04T15:43:36;1.93;;;1.83;;
4001;SDS011;2015;48.670;9.060;2023-01-04T15:46:08;2.50;;;2.30;;
4001;SDS011;2015;48.670;9.060;2023-01-04T15:48:40;2.10;;;2.00;;
4001;SDS011;2015;48.670;9.060;2023-01-04T15:51:12;2.43;;;2.33;;
4001;SDS011;2015;48.670;9.060;2023-01-04T15:53:43;2.07;;;1.97;;
4001;SDS011;2015;48.670;9.060;2023-01-04T15:56:15;2.07;;;1.97;;
4001;SDS011;2015;48.670;9.060;2023-01-04T15:58:52;2.93;;;2.73;;
4001;SDS011;2015;48.670;9.060;2023-01-04T16:01:25;2.10;;;1.97;;
4001;SDS011;2015;48.670;9.060;2023-01-04T16:03:57;2.30;;;2.10;;
4001;SDS011;2015;48.670;9.060;2023-01-04T16:06:28;2.57;;;2.10;;
4001;SDS011;2015;48.670;9.060;2023-01-04T16:09:00;1.70;;;1.60;;
4001;SDS011;2015;48.670;9.060;2023-01-04T16:11:32;2.07;;;1.87;;
4001;SDS011;2015;48.670;9.060;2023-01-04T16:14:04;1.90;;;1.70;;
4001;SDS011;2015;48.670;9.060;2023-01-04T16:16:36;2.17;;;2.07;;
4001;SDS011;2015;48.670;9.060;2023-01-04T16:19:07;3.30;;;1.87;;
4001;SDS011;2015;48.670;9.060;2023-01-04T16:21:39;1.93;;;1.83;;
4001;SDS011;2015;48.670;9.060;2023-01-04T16:24:11;1.40;;;1.30;;
4001;SDS011;2015;48.670;9.060;2023-01-04T16:27:03;1.60;;;1.50;;
4001;SDS011;2015;48.670;9.060;2023-01-04T16:29:35;1.97;;;1.80;;
4001;SDS011;2015;48.670;9.060;2023-01-04T16:32:07;1.70;;;1.60;;
4001;SDS011;2015;48.670;9.060;2023-01-04T16:34:39;3.73;;;3.43;;
4001;SDS011;2015;48.670;9.060;2023-01-04T16:37:10;2.90;;;1.80;;
4001;SDS011;2015;48.670;9.060;2023-01-04T16:39:42;2.10;;;2.00;;
4001;SDS011;2015;48.670;9.060;2023-01-04T16:42:34;2.37;;;2.17;;
4001;SDS011;2015;48.670;9.060;2023-01-04T16:45:07;2.00;;;1.90;;
4001;SDS011;2015;48.670;9.060;2023-01-04T16:47:40;2.03;;;1.93;;
4001;SDS011;2015;48.670;9.060;2023-01-04T16:50:13;2.10;;;2.00;;
4001;SDS011;2015;48.670;9.060;2023-01-04T16:52:45;1.80;;;1.70;;
4001;SDS011;2015;48.670;9.060;2023-01-04T16:55:16;1.60;;;1.50;;
4001;SDS011;2015;48.670;9.060;2023-01-04T16:57:54;1.73;;;1.63;;
4001;SDS011;2015;48.670;9.060;2023-01-04T17:00:25;2.17;;;2.00;;
4001;SDS011;2015;48.670;9.060;2023-01-04T17:02:57;1.80;;;1.70;;
4001;SDS011;2015;48.670;9.060;2023-01-04T17:05:29;2.37;;;2.00;;
4001;SDS011;2015;48.670;9.060;2023-01-04T17:08:01;1.80;;;1.70;;
4001;SDS011;2015;48.670;9.060;2023-01-04T17:10:35;1.83;;;1.73;;
4001;SDS011;2015;48.670;9.060;2023-01-04T17:13:07;3.00;;;2.17;;
4001;SDS011;2015;48.670;9.060;2023-01-04T17:15:38;1.60;;;1.50;;
4001;SDS011;2015;48.670;9.060;2023-01-04T17:18:14;2.60;;;1.90;;
4001;SDS011;2015;48.670;9.060;2023-01-04T17:20:51;2.00;;;1.90;;
4001;SDS011;2015;48.670;9.060;2023-01-04T17:23:47;2.27;;;1.93;;
4001;SDS011;2015;48.670;9.060;2023-01-04T17:26:21;3.47;;;1.87;;
4001;SDS011;2015;48.670;9.060;2023-01-04T17:28:55;2.53;;;2.00;;
4001;SDS011;2015;48.670;9.060;2023-01-04T17:31:29;2.33;;;1.70;;
4001;SDS011;2015;48.670;9.060;2023-01-04T17:34:06;2.87;;;2.67;;
4001;SDS011;2015;48.670;9.060;2023-01-04T17:36:40;1.47;;;1.37;;
4001;SDS011;2015;48.670;9.060;2023-01-04T17:39:12;1.60;;;1.50;;
4001;SDS011;2015;48.670;9.060;2023-01-04T17:41:44;1.70;;;1.60;;
4001;SDS011;2015;48.670;9.060;2023-01-04T17:44:15;1.80;;;1.70;;
4001;SDS011;2015;48.670;9.060;2023-01-04T17:46:47;1.70;;;1.60;;
4001;SDS011;2015;48.670;9.060;2023-01-04T17:49:19;1.47;;;1.37;;
4001;SDS011;2015;48.670;9.060;2023-01-04T17:51:54;1.57;;;1.47;;